createdAt,value
2019-03-13T00:01:47.870Z,71.02
2019-03-13T00:04:15.380Z,71.02
2019-03-13T00:06:42.981Z,71.15
2019-03-13T00:09:10.619Z,71.15
2019-03-13T00:11:38.500Z,71.14
2019-03-13T00:14:07.234Z,70.87
2019-03-13T00:16:34.822Z,71.51
2019-03-13T00:19:02.317Z,70.84
2019-03-13T00:21:30.177Z,70.91
2019-03-13T00:23:57.762Z,70.91
2019-03-13T00:26:25.262Z,70.81
2019-03-13T00:28:52.752Z,71.61
2019-03-13T00:31:21.791Z,71.61
2019-03-13T00:33:49.220Z,70.85
2019-03-13T00:36:17.032Z,70.85
2019-03-13T00:38:45.040Z,71.12
2019-03-13T00:41:12.610Z,71.10
2019-03-13T00:43:40.069Z,71.34
2019-03-13T00:46:07.788Z,70.82
2019-03-13T00:48:35.669Z,70.78
2019-03-13T00:51:04.293Z,70.83
2019-03-13T00:53:34.104Z,70.83
2019-03-13T00:56:03.660Z,70.95
2019-03-13T00:58:31.184Z,71.24
2019-03-13T01:01:17.523Z,71.24
2019-03-13T01:04:06.794Z,70.56
2019-03-13T01:06:37.024Z,71.11
2019-03-13T01:09:05.447Z,71.11
2019-03-13T01:11:32.967Z,70.84
2019-03-13T01:14:00.810Z,70.63
2019-03-13T01:16:28.685Z,70.63
2019-03-13T01:18:56.537Z,70.68
2019-03-13T01:21:24.010Z,71.03
2019-03-13T01:23:51.823Z,70.48
2019-03-13T01:26:19.379Z,70.48
2019-03-13T01:28:46.780Z,71.19
2019-03-13T01:31:31.874Z,70.62
2019-03-13T01:34:16.940Z,70.62
2019-03-13T01:36:44.563Z,70.71
2019-03-13T01:39:12.050Z,71.14
2019-03-13T01:41:39.518Z,71.14
2019-03-13T01:44:07.743Z,70.91
2019-03-13T01:46:35.312Z,71.15
2019-03-13T01:49:02.787Z,71.23
2019-03-13T01:51:30.746Z,71.23
2019-03-13T01:53:58.209Z,70.99
2019-03-13T01:56:25.716Z,71.20
2019-03-13T01:58:53.613Z,70.58
2019-03-13T02:01:21.351Z,70.71
2019-03-13T02:03:48.851Z,70.73
2019-03-13T02:06:16.320Z,70.84
2019-03-13T02:08:44.253Z,70.73
2019-03-13T02:11:13.934Z,70.83
2019-03-13T02:13:43.169Z,70.83
2019-03-13T02:16:12.341Z,71.71
2019-03-13T02:18:42.801Z,71.71
2019-03-13T02:21:11.216Z,71.47
2019-03-13T02:23:41.125Z,71.73
2019-03-13T02:26:10.430Z,71.74
2019-03-13T02:28:37.976Z,71.74
2019-03-13T02:31:05.950Z,72.26
2019-03-13T02:33:33.547Z,71.73
2019-03-13T02:36:01.068Z,71.37
2019-03-13T02:38:29.053Z,72.00
2019-03-13T02:40:56.567Z,71.51
2019-03-13T02:43:26.893Z,71.51
2019-03-13T02:45:54.426Z,71.79
2019-03-13T02:48:22.337Z,70.85
2019-03-13T02:50:51.847Z,70.85
2019-03-13T02:53:19.399Z,71.19
2019-03-13T02:55:47.423Z,71.10
2019-03-13T02:58:22.366Z,70.91
2019-03-13T03:01:09.183Z,70.33
2019-03-13T03:03:41.113Z,70.66
2019-03-13T03:06:08.627Z,70.66
2019-03-13T03:08:36.577Z,70.49
2019-03-13T03:11:04.110Z,70.93
2019-03-13T03:13:33.356Z,70.54
2019-03-13T03:16:00.820Z,70.54
2019-03-13T03:18:28.682Z,70.26
2019-03-13T03:20:56.476Z,69.58
2019-03-13T03:23:23.994Z,70.08
2019-03-13T03:25:51.820Z,69.74
2019-03-13T03:28:19.352Z,69.80
2019-03-13T03:30:46.871Z,69.61
2019-03-13T03:33:14.721Z,69.17
2019-03-13T03:35:42.679Z,69.14
2019-03-13T03:38:13.194Z,69.57
2019-03-13T03:40:42.957Z,69.53
2019-03-13T03:43:10.475Z,69.53
2019-03-13T03:45:37.943Z,69.51
2019-03-13T03:48:05.881Z,69.18
2019-03-13T03:50:34.140Z,68.61
2019-03-13T03:53:08.842Z,68.61
2019-03-13T03:55:36.434Z,68.76
2019-03-13T03:58:05.985Z,68.68
2019-03-13T04:00:33.564Z,68.61
2019-03-13T04:03:01.059Z,68.48
2019-03-13T04:05:28.544Z,68.21
2019-03-13T04:07:56.464Z,67.41
2019-03-13T04:10:24.022Z,67.41
2019-03-13T04:12:51.505Z,67.41
2019-03-13T04:15:19.458Z,67.40
2019-03-13T04:17:46.971Z,67.31
2019-03-13T04:20:14.544Z,67.52
2019-03-13T04:22:42.440Z,66.76
2019-03-13T04:25:10.040Z,66.76
2019-03-13T04:27:37.579Z,66.70
2019-03-13T04:30:05.166Z,66.70
2019-03-13T04:32:33.074Z,66.78
2019-03-13T04:35:00.552Z,66.78
2019-03-13T04:37:28.063Z,66.22
2019-03-13T04:39:55.652Z,66.23
2019-03-13T04:42:24.403Z,66.19
2019-03-13T04:44:51.855Z,66.19
2019-03-13T04:47:24.875Z,66.11
2019-03-13T04:49:51.745Z,66.11
2019-03-13T04:52:20.367Z,65.79
2019-03-13T04:54:47.852Z,65.77
2019-03-13T04:57:15.590Z,65.79
2019-03-13T04:59:43.175Z,65.38
2019-03-13T05:02:10.706Z,66.02
2019-03-13T05:04:39.889Z,66.02
2019-03-13T05:07:07.423Z,65.70
2019-03-13T05:09:35.064Z,65.72
2019-03-13T05:12:03.086Z,66.04
2019-03-13T05:14:32.676Z,65.89
2019-03-13T05:17:00.188Z,65.89
2019-03-13T05:19:27.775Z,65.59
2019-03-13T05:21:56.053Z,65.54
2019-03-13T05:24:23.608Z,65.54
2019-03-13T05:26:54.133Z,65.56
2019-03-13T05:29:21.959Z,65.21
2019-03-13T05:31:49.471Z,65.21
2019-03-13T05:34:17.015Z,65.48
2019-03-13T05:36:45.000Z,65.46
2019-03-13T05:39:12.552Z,65.46
2019-03-13T05:41:40.109Z,65.14
2019-03-13T05:44:08.334Z,64.98
2019-03-13T05:46:35.872Z,64.94
2019-03-13T05:49:03.334Z,64.92
2019-03-13T05:51:33.051Z,64.83
2019-03-13T05:54:00.650Z,64.76
2019-03-13T05:56:28.191Z,64.52
2019-03-13T05:58:56.225Z,64.54
2019-03-13T06:01:32.825Z,64.54
2019-03-13T06:04:00.915Z,64.75
2019-03-13T06:06:28.449Z,64.71
2019-03-13T06:08:58.975Z,64.71
2019-03-13T06:11:26.781Z,64.73
2019-03-13T06:13:57.287Z,64.42
2019-03-13T06:16:24.743Z,64.53
2019-03-13T06:18:53.134Z,64.53
2019-03-13T06:21:21.055Z,64.47
2019-03-13T06:23:48.597Z,64.49
2019-03-13T06:26:16.469Z,64.44
2019-03-13T06:28:45.105Z,64.35
2019-03-13T06:31:12.630Z,63.96
2019-03-13T06:33:40.629Z,63.96
2019-03-13T06:36:08.196Z,64.46
2019-03-13T06:38:35.684Z,63.91
2019-03-13T06:41:05.257Z,63.69
2019-03-13T06:43:32.992Z,63.69
2019-03-13T06:46:00.583Z,63.96
2019-03-13T06:48:28.458Z,63.63
2019-03-13T06:50:55.987Z,63.63
2019-03-13T06:53:23.600Z,64.06
2019-03-13T06:55:51.646Z,64.13
2019-03-13T06:58:25.769Z,64.26
2019-03-13T07:01:03.041Z,64.46
2019-03-13T07:03:52.573Z,65.37
2019-03-13T07:06:37.278Z,65.37
2019-03-13T07:09:39.256Z,65.98
2019-03-13T07:12:33.738Z,65.98
2019-03-13T07:15:22.719Z,66.41
2019-03-13T07:18:09.137Z,67.64
2019-03-13T07:20:54.748Z,67.64
2019-03-13T07:23:35.621Z,68.89
2019-03-13T07:26:20.997Z,68.64
2019-03-13T07:29:12.598Z,69.56
2019-03-13T07:32:02.022Z,69.56
2019-03-13T07:34:51.300Z,69.45
2019-03-13T07:37:35.399Z,69.73
2019-03-13T07:40:24.672Z,70.19
2019-03-13T07:43:18.681Z,70.19
2019-03-13T07:46:11.038Z,70.20
2019-03-13T07:49:09.874Z,70.49
2019-03-13T07:52:08.920Z,70.68
2019-03-13T07:54:56.791Z,70.79
2019-03-13T07:57:52.291Z,70.85
2019-03-13T08:00:26.677Z,70.74
2019-03-13T08:02:59.279Z,70.64
2019-03-13T08:05:38.488Z,70.34
2019-03-13T08:08:23.428Z,70.41
2019-03-13T08:11:08.011Z,70.06
2019-03-13T08:14:04.442Z,70.06
2019-03-13T08:16:52.287Z,70.44
2019-03-13T08:19:57.528Z,71.66
2019-03-13T08:22:38.114Z,72.16
2019-03-13T08:25:23.401Z,72.16
2019-03-13T08:28:08.460Z,71.97
2019-03-13T08:30:53.337Z,71.48
2019-03-13T08:33:55.414Z,71.48
2019-03-13T08:36:47.173Z,71.45
2019-03-13T08:39:33.811Z,70.72
2019-03-13T08:42:32.287Z,70.72
2019-03-13T08:45:25.286Z,71.78
2019-03-13T08:48:20.337Z,71.23
2019-03-13T08:50:59.547Z,71.23
2019-03-13T08:53:45.963Z,71.53
2019-03-13T08:56:22.972Z,71.41
2019-03-13T08:59:01.553Z,71.41
2019-03-13T09:01:41.363Z,71.58
2019-03-13T09:04:42.096Z,71.58
2019-03-13T09:07:30.120Z,72.07
2019-03-13T09:10:28.362Z,71.93
2019-03-13T09:13:27.022Z,71.93
2019-03-13T09:16:19.964Z,73.79
2019-03-13T09:19:09.787Z,73.54
2019-03-13T09:21:49.467Z,73.62
2019-03-13T09:24:26.997Z,73.62
2019-03-13T09:27:06.913Z,74.04
2019-03-13T09:30:08.889Z,74.72
2019-03-13T09:32:58.674Z,74.72
2019-03-13T09:35:34.878Z,74.75
2019-03-13T09:38:20.011Z,75.42
2019-03-13T09:41:06.709Z,75.42
2019-03-13T09:44:00.004Z,74.55
2019-03-13T09:46:58.843Z,74.55
2019-03-13T09:49:51.134Z,73.85
2019-03-13T09:52:37.800Z,73.71
2019-03-13T09:55:27.263Z,73.71
2019-03-13T09:58:12.627Z,74.03
2019-03-13T10:00:51.158Z,74.03
2019-03-13T10:03:29.879Z,73.67
2019-03-13T10:06:14.622Z,73.67
2019-03-13T10:09:02.342Z,74.12
2019-03-13T10:11:47.908Z,74.31
2019-03-13T10:14:40.778Z,75.02
2019-03-13T10:17:16.424Z,75.02
2019-03-13T10:20:09.287Z,74.81
2019-03-13T10:22:49.793Z,75.10
2019-03-13T10:25:39.457Z,75.10
2019-03-13T10:28:16.378Z,75.51
2019-03-13T10:31:15.373Z,75.51
2019-03-13T10:34:10.789Z,76.06
2019-03-13T10:36:52.057Z,75.38
2019-03-13T10:39:56.158Z,75.38
2019-03-13T10:43:02.246Z,75.87
2019-03-13T10:45:57.371Z,75.87
2019-03-13T10:48:59.303Z,76.32
2019-03-13T10:51:54.021Z,76.32
2019-03-13T10:54:40.129Z,75.36
2019-03-13T10:57:39.347Z,75.36
2019-03-13T11:00:35.242Z,74.76
2019-03-13T11:03:20.039Z,74.76
2019-03-13T11:06:14.206Z,75.30
2019-03-13T11:09:06.025Z,75.58
2019-03-13T11:11:39.501Z,75.81
2019-03-13T11:14:34.955Z,75.94
2019-03-13T11:17:13.944Z,75.96
2019-03-13T11:20:12.592Z,75.78
2019-03-13T11:22:59.302Z,75.78
2019-03-13T11:25:48.543Z,75.97
2019-03-13T11:28:53.217Z,76.22
2019-03-13T11:31:36.008Z,75.69
2019-03-13T11:34:21.544Z,75.69
2019-03-13T11:37:06.210Z,75.67
2019-03-13T11:39:59.080Z,75.66
2019-03-13T11:42:50.297Z,75.66
2019-03-13T11:45:36.535Z,75.84
2019-03-13T11:48:34.802Z,75.85
2019-03-13T11:51:24.279Z,75.58
2019-03-13T11:54:08.150Z,75.58
2019-03-13T11:56:56.253Z,75.60
2019-03-13T11:59:32.288Z,75.42
2019-03-13T12:02:17.649Z,75.26
2019-03-13T12:05:06.830Z,75.03
2019-03-13T12:07:56.374Z,74.73
2019-03-13T12:10:38.826Z,74.47
2019-03-13T12:13:25.930Z,73.84
2019-03-13T12:15:58.581Z,74.55
2019-03-13T12:18:53.596Z,74.55
2019-03-13T12:21:44.725Z,73.76
2019-03-13T12:24:43.318Z,74.12
2019-03-13T12:27:34.629Z,74.77
2019-03-13T12:30:21.143Z,74.42
2019-03-13T12:33:10.592Z,74.42
2019-03-13T12:35:55.710Z,74.91
2019-03-13T12:38:37.860Z,75.24
2019-03-13T12:41:24.035Z,75.50
2019-03-13T12:44:10.799Z,75.74
2019-03-13T12:47:07.586Z,76.58
2019-03-13T12:49:53.991Z,76.58
2019-03-13T12:52:46.004Z,76.19
2019-03-13T12:55:43.742Z,76.19
2019-03-13T12:58:36.408Z,77.05
2019-03-13T13:01:34.935Z,76.69
2019-03-13T13:04:24.405Z,77.59
2019-03-13T13:07:18.851Z,77.60
2019-03-13T13:10:21.805Z,77.88
2019-03-13T13:13:09.850Z,77.57
2019-03-13T13:16:08.429Z,78.28
2019-03-13T13:18:49.779Z,78.22
2019-03-13T13:21:17.657Z,78.56
2019-03-13T13:23:45.243Z,78.00
2019-03-13T13:26:12.826Z,78.23
2019-03-13T13:28:46.636Z,78.46
2019-03-13T13:31:17.151Z,78.77
2019-03-13T13:33:44.602Z,78.77
2019-03-13T13:36:17.458Z,78.73
2019-03-13T13:38:44.986Z,78.72
2019-03-13T13:41:12.556Z,79.08
2019-03-13T13:43:40.756Z,79.08
2019-03-13T13:46:08.345Z,78.82
2019-03-13T13:48:36.225Z,79.42
2019-03-13T13:51:05.991Z,79.04
2019-03-13T13:53:33.577Z,78.96
2019-03-13T13:56:05.861Z,79.52
2019-03-13T13:58:36.896Z,79.16
2019-03-13T14:01:04.381Z,79.16
2019-03-13T14:03:31.924Z,79.75
2019-03-13T14:05:59.803Z,79.93
2019-03-13T14:08:27.326Z,79.93
2019-03-13T14:10:54.865Z,79.32
2019-03-13T14:13:22.809Z,78.71
2019-03-13T14:15:50.387Z,78.75
2019-03-13T14:18:17.983Z,79.02
2019-03-13T14:20:51.828Z,79.49
2019-03-13T14:23:23.655Z,79.49
2019-03-13T14:25:50.915Z,79.34
2019-03-13T14:28:21.943Z,79.41
2019-03-13T14:30:51.794Z,79.64
2019-03-13T14:33:20.363Z,79.64
2019-03-13T14:35:48.254Z,79.21
2019-03-13T14:38:15.739Z,79.42
2019-03-13T14:40:45.211Z,79.42
2019-03-13T14:43:13.098Z,78.79
2019-03-13T14:45:40.690Z,78.79
2019-03-13T14:48:09.641Z,79.13
2019-03-13T14:50:37.497Z,78.75
2019-03-13T14:55:40.513Z,79.30
2019-03-13T14:58:07.994Z,78.64
2019-03-13T15:00:35.597Z,78.68
2019-03-13T15:03:03.631Z,78.97
2019-03-13T15:05:31.223Z,78.97
2019-03-13T15:08:00.802Z,78.92
2019-03-13T15:10:30.316Z,78.92
2019-03-13T15:13:06.764Z,79.08
2019-03-13T15:15:41.799Z,78.35
2019-03-13T15:18:10.627Z,78.35
2019-03-13T15:20:38.215Z,78.76
2019-03-13T15:23:08.035Z,79.22
2019-03-13T15:25:35.655Z,79.14
2019-03-13T15:28:04.323Z,79.64
2019-03-13T15:30:34.248Z,79.76
2019-03-13T15:33:02.677Z,79.53
2019-03-13T15:35:30.204Z,79.58
2019-03-13T15:37:59.237Z,79.58
2019-03-13T15:40:26.922Z,79.64
2019-03-13T15:42:54.420Z,79.42
2019-03-13T15:45:22.371Z,78.40
2019-03-13T15:47:49.852Z,78.76
2019-03-13T15:50:19.235Z,78.76
2019-03-13T15:52:48.478Z,77.41
2019-03-13T15:55:16.029Z,77.20
2019-03-13T15:57:43.601Z,77.20
2019-03-13T16:00:11.635Z,77.46
2019-03-13T16:02:43.333Z,77.46
2019-03-13T16:05:10.876Z,77.71
2019-03-13T16:07:38.892Z,77.91
2019-03-13T16:10:09.387Z,78.02
2019-03-13T16:12:36.984Z,78.02
2019-03-13T16:15:07.810Z,78.00
2019-03-13T16:17:35.400Z,78.07
2019-03-13T16:20:04.199Z,78.07
2019-03-13T16:22:32.133Z,78.61
2019-03-13T16:24:59.663Z,78.68
2019-03-13T16:27:29.130Z,78.68
2019-03-13T16:29:57.038Z,78.24
2019-03-13T16:32:24.753Z,78.24
2019-03-13T16:34:53.771Z,78.36
2019-03-13T16:37:23.630Z,78.41
2019-03-13T16:39:55.544Z,78.70
2019-03-13T16:42:33.892Z,78.70
2019-03-13T16:45:01.850Z,78.26
2019-03-13T16:47:29.486Z,78.70
2019-03-13T16:50:01.226Z,78.70
2019-03-13T16:52:29.197Z,78.25
2019-03-13T16:54:58.913Z,78.25
2019-03-13T17:00:06.186Z,79.62
2019-03-13T17:02:34.052Z,79.62
2019-03-13T17:05:20.497Z,79.28
2019-03-13T17:07:49.891Z,79.50
2019-03-13T17:10:17.854Z,79.50
2019-03-13T17:12:45.742Z,79.59
2019-03-13T17:15:13.388Z,79.81
2019-03-13T17:17:41.042Z,79.81
2019-03-13T17:20:09.085Z,79.50
2019-03-13T17:22:36.770Z,79.21
2019-03-13T17:25:05.883Z,79.21
2019-03-13T17:27:38.073Z,79.57
2019-03-13T17:30:05.735Z,79.28
2019-03-13T17:32:35.870Z,79.28
2019-03-13T17:35:06.228Z,79.41
2019-03-13T17:37:33.893Z,79.77
2019-03-13T17:40:01.558Z,79.65
2019-03-13T17:42:29.672Z,79.65
2019-03-13T17:44:57.288Z,79.76
2019-03-13T17:47:24.858Z,79.81
2019-03-13T17:49:54.643Z,79.84
2019-03-13T17:52:25.271Z,80.12
2019-03-13T17:55:03.062Z,80.12
2019-03-13T17:57:31.083Z,80.05
2019-03-13T18:00:01.109Z,79.56
2019-03-13T18:02:33.958Z,79.96
2019-03-13T18:05:06.094Z,79.90
2019-03-13T18:07:35.433Z,79.49
2019-03-13T18:10:04.201Z,79.49
2019-03-13T18:12:32.172Z,79.88
2019-03-13T18:14:59.854Z,79.88
2019-03-13T18:17:27.505Z,79.88
2019-03-13T18:19:55.754Z,80.34
2019-03-13T18:22:23.399Z,79.81
2019-03-13T18:24:53.714Z,79.85
2019-03-13T18:27:21.906Z,79.85
2019-03-13T18:29:49.523Z,80.13
2019-03-13T18:32:20.379Z,80.13
2019-03-13T18:34:48.342Z,80.19
2019-03-13T18:37:17.276Z,79.76
2019-03-13T18:39:44.802Z,79.76
2019-03-13T18:42:17.783Z,80.30
2019-03-13T18:44:45.422Z,80.30
2019-03-13T18:47:18.540Z,80.17
2019-03-13T18:49:48.620Z,79.97
2019-03-13T18:52:16.275Z,79.97
2019-03-13T18:54:43.880Z,80.22
2019-03-13T18:57:11.850Z,80.55
2019-03-13T18:59:39.480Z,79.88
2019-03-13T19:02:07.127Z,79.88
2019-03-13T19:04:37.705Z,80.00
2019-03-13T19:07:07.111Z,80.00
2019-03-13T19:09:37.151Z,79.32
2019-03-13T19:12:25.897Z,79.08
2019-03-13T19:15:12.325Z,79.51
2019-03-13T19:18:00.819Z,79.54
2019-03-13T19:20:28.032Z,79.54
2019-03-13T19:23:14.570Z,79.39
2019-03-13T19:26:01.129Z,79.48
2019-03-13T19:28:47.545Z,79.79
2019-03-13T19:31:15.249Z,80.21
2019-03-13T19:34:15.470Z,79.66
2019-03-13T19:39:36.463Z,79.88
2019-03-13T19:45:10.349Z,80.05
2019-03-13T19:47:40.474Z,79.48
2019-03-13T19:53:13.325Z,79.70
2019-03-13T19:55:59.775Z,79.43
2019-03-13T19:58:46.181Z,78.84
2019-03-13T20:01:32.611Z,78.73
2019-03-13T20:04:00.259Z,78.73
2019-03-13T20:06:46.714Z,78.94
2019-03-13T20:09:14.404Z,78.89
2019-03-13T20:12:00.805Z,78.82
2019-03-13T20:14:28.477Z,79.03
2019-03-13T20:17:16.360Z,79.03
2019-03-13T20:19:44.574Z,78.87
2019-03-13T20:22:31.010Z,78.27
2019-03-13T20:24:58.597Z,78.27
2019-03-13T20:27:26.211Z,78.65
2019-03-13T20:30:24.886Z,78.60
2019-03-13T20:32:42.013Z,78.53
2019-03-13T20:35:28.455Z,78.10
2019-03-13T20:38:14.899Z,78.10
2019-03-13T20:41:01.387Z,78.39
2019-03-13T20:43:29.042Z,77.70
2019-03-13T20:46:15.434Z,78.28
2019-03-13T20:48:43.135Z,78.28
2019-03-13T20:51:29.581Z,77.81
2019-03-13T20:53:57.308Z,77.39
2019-03-13T20:56:43.772Z,77.39
2019-03-13T20:59:32.652Z,77.99
2019-03-13T21:02:30.585Z,77.99
2019-03-13T21:05:18.867Z,77.28
2019-03-13T21:07:54.371Z,77.28
2019-03-13T21:13:27.610Z,77.09
2019-03-13T21:15:55.201Z,77.09
2019-03-13T21:18:41.654Z,77.27
2019-03-13T21:21:09.241Z,77.23
2019-03-13T21:23:58.840Z,77.23
2019-03-13T21:26:26.512Z,77.23
2019-03-13T21:29:12.915Z,77.18
2019-03-13T21:31:59.399Z,76.86
2019-03-13T21:34:45.830Z,77.34
2019-03-13T21:37:16.264Z,77.34
2019-03-13T21:39:43.889Z,77.01
2019-03-13T21:42:30.339Z,77.33
2019-03-13T21:45:03.932Z,77.33
2019-03-13T21:47:50.302Z,76.89
2019-03-13T21:50:18.044Z,76.89
2019-03-13T21:55:54.079Z,77.23
2019-03-13T21:58:21.725Z,77.12
2019-03-13T22:05:54.550Z,76.95
2019-03-13T22:08:40.975Z,76.95
2019-03-13T22:11:08.535Z,76.22
2019-03-13T22:14:07.158Z,76.22
2019-03-13T22:16:43.057Z,77.02
2019-03-13T22:19:29.443Z,77.02
2019-03-13T22:21:57.174Z,76.96
2019-03-13T22:24:43.644Z,77.06
2019-03-13T22:27:11.259Z,77.63
2019-03-13T22:29:57.983Z,77.22
2019-03-13T22:32:25.614Z,77.22
2019-03-13T22:35:24.237Z,77.05
2019-03-13T22:40:48.114Z,77.65
2019-03-13T22:43:16.243Z,77.07
2019-03-13T22:46:02.926Z,77.11
2019-03-13T22:48:32.777Z,77.69
2019-03-13T22:51:02.375Z,77.69
2019-03-13T22:59:12.811Z,77.49
2019-03-13T23:01:43.133Z,77.11
2019-03-13T23:09:50.839Z,76.98
2019-03-13T23:12:37.220Z,76.93
2019-03-13T23:15:18.394Z,76.92
2019-03-13T23:17:34.332Z,76.92
2019-03-13T23:20:02.434Z,76.60
2019-03-13T23:22:30.560Z,76.75
2019-03-13T23:25:29.617Z,76.78
2019-03-13T23:27:46.466Z,76.68
2019-03-13T23:30:14.233Z,76.68
2019-03-13T23:32:41.891Z,76.08
2019-03-13T23:35:09.477Z,76.31
2019-03-13T23:37:37.567Z,76.31
2019-03-13T23:40:24.329Z,76.24
2019-03-13T23:45:57.165Z,76.19
2019-03-13T23:48:24.761Z,76.19
2019-03-13T23:50:52.455Z,76.64
2019-03-13T23:53:20.215Z,75.97
2019-03-13T23:55:50.945Z,75.97
2019-03-13T23:58:37.313Z,76.09
